createdAt,value
2022-11-12T00:00:25.603Z,10.80
2022-11-12T00:05:49.597Z,10.90
2022-11-12T00:11:11.574Z,11.00
2022-11-12T00:16:33.781Z,11.10
2022-11-12T00:21:54.468Z,11.20
2022-11-12T00:27:15.028Z,11.20
2022-11-12T00:32:39.267Z,11.30
2022-11-12T00:38:00.947Z,11.30
2022-11-12T00:43:23.020Z,11.40
2022-11-12T00:48:46.887Z,11.40
2022-11-12T00:54:11.185Z,11.40
2022-11-12T00:59:32.398Z,11.30
2022-11-12T01:04:53.739Z,11.20
2022-11-12T01:10:17.748Z,11.30
2022-11-12T01:15:44.303Z,11.20
2022-11-12T01:21:07.155Z,11.10
2022-11-12T01:26:28.641Z,11.00
2022-11-12T01:31:49.288Z,11.00
2022-11-12T01:37:09.787Z,11.00
2022-11-12T01:42:33.108Z,11.00
2022-11-12T01:47:53.527Z,11.00
2022-11-12T01:53:15.188Z,11.00
2022-11-12T01:58:38.731Z,11.00
2022-11-12T02:04:01.117Z,11.10
2022-11-12T02:09:26.046Z,11.10
2022-11-12T02:14:46.585Z,11.10
2022-11-12T02:20:12.104Z,11.10
2022-11-12T02:25:36.436Z,11.10
2022-11-12T02:30:58.270Z,11.10
2022-11-12T02:36:20.938Z,11.10
2022-11-12T02:41:44.857Z,11.10
2022-11-12T02:47:08.065Z,11.20
2022-11-12T02:52:29.737Z,11.30
2022-11-12T02:57:51.432Z,11.30
2022-11-12T03:03:14.716Z,11.30
2022-11-12T03:08:35.325Z,11.20
2022-11-12T03:13:56.253Z,11.20
2022-11-12T03:19:17.233Z,11.20
2022-11-12T03:24:38.728Z,11.30
2022-11-12T03:29:59.650Z,11.30
2022-11-12T03:35:21.371Z,11.30
2022-11-12T03:40:44.410Z,11.20
2022-11-12T03:46:05.452Z,11.20
2022-11-12T03:51:26.060Z,11.10
2022-11-12T03:56:46.796Z,11.00
2022-11-12T04:02:07.465Z,11.00
2022-11-12T04:07:57.974Z,10.90
2022-11-12T04:13:27.725Z,10.90
2022-11-12T04:19:10.678Z,10.90
2022-11-12T04:24:58.221Z,10.80
2022-11-12T04:30:21.748Z,10.80
2022-11-12T04:35:47.125Z,10.90
2022-11-12T04:41:27.242Z,11.10
2022-11-12T04:46:47.571Z,11.20
2022-11-12T04:52:09.117Z,11.20
2022-11-12T04:57:29.880Z,11.30
2022-11-12T05:02:51.501Z,11.30
2022-11-12T05:08:15.078Z,11.40
2022-11-12T05:13:35.413Z,11.50
2022-11-12T05:18:56.161Z,11.60
2022-11-12T05:24:34.082Z,11.70
2022-11-12T05:29:58.137Z,11.70
2022-11-12T05:35:19.116Z,11.70
2022-11-12T05:40:45.305Z,11.70
2022-11-12T05:46:06.405Z,11.60
2022-11-12T05:51:26.925Z,11.50
2022-11-12T05:56:47.705Z,11.60
2022-11-12T06:02:08.506Z,11.60
2022-11-12T06:07:29.288Z,11.60
2022-11-12T06:12:53.691Z,11.60
2022-11-12T06:18:17.691Z,11.60
2022-11-12T06:23:42.739Z,11.70
2022-11-12T06:29:03.571Z,11.70
2022-11-12T06:34:24.243Z,11.60
2022-11-12T06:39:44.859Z,11.50
2022-11-12T06:45:06.427Z,11.40
2022-11-12T06:50:26.849Z,11.40
2022-11-12T06:55:47.486Z,11.50
2022-11-12T07:01:31.982Z,11.60
2022-11-12T07:06:52.635Z,11.80
2022-11-12T07:12:13.256Z,11.80
2022-11-12T07:17:33.908Z,11.80
2022-11-12T07:22:54.590Z,12.00
2022-11-12T07:28:15.527Z,12.10
2022-11-12T07:33:37.809Z,12.20
2022-11-12T07:38:58.612Z,12.30
2022-11-12T07:44:19.257Z,12.30
2022-11-12T07:49:40.091Z,12.40
2022-11-12T07:55:04.840Z,12.50
2022-11-12T08:00:25.849Z,12.50
2022-11-12T08:05:46.702Z,12.50
2022-11-12T08:11:08.523Z,12.50
2022-11-12T08:16:30.440Z,12.60
2022-11-12T08:21:51.020Z,12.60
2022-11-12T08:27:11.835Z,12.70
2022-11-12T08:32:32.615Z,12.90
2022-11-12T08:38:01.116Z,13.00
2022-11-12T08:43:25.258Z,13.20
2022-11-12T08:48:49.767Z,13.40
2022-11-12T08:54:17.240Z,13.50
2022-11-12T08:59:39.386Z,13.50
2022-11-12T09:10:55.745Z,13.80
2022-11-12T09:16:20.383Z,14.00
2022-11-12T09:21:41.393Z,14.20
2022-11-12T09:27:14.823Z,14.30
2022-11-12T09:32:49.603Z,14.50
2022-11-12T09:38:24.645Z,14.70
2022-11-12T09:44:22.205Z,14.90
2022-11-12T09:56:10.714Z,15.30
2022-11-12T10:01:50.666Z,15.50
2022-11-12T10:07:25.466Z,15.60
2022-11-12T10:13:28.096Z,15.90
2022-11-12T10:19:08.417Z,16.20
2022-11-12T10:24:39.373Z,16.30
2022-11-12T10:30:14.754Z,16.50
2022-11-12T10:47:45.845Z,17.00
2022-11-12T11:00:36.913Z,17.60
2022-11-12T11:06:37.232Z,17.80
2022-11-12T11:12:25.035Z,18.10
2022-11-12T11:30:41.602Z,17.70
2022-11-12T11:36:18.161Z,17.40
2022-11-12T11:49:02.345Z,17.30
2022-11-12T12:07:47.469Z,17.30
2022-11-12T12:14:12.725Z,17.30
2022-11-12T12:26:32.231Z,17.30
2022-11-12T12:32:24.788Z,17.50
2022-11-12T12:56:54.690Z,17.70
2022-11-12T13:02:54.601Z,17.80
2022-11-12T13:08:58.455Z,17.70
2022-11-12T13:14:40.719Z,17.80
2022-11-12T13:20:04.311Z,17.80
2022-11-12T13:25:31.900Z,17.80
2022-11-12T13:31:01.845Z,17.80
2022-11-12T13:36:40.753Z,17.80
2022-11-12T13:42:44.886Z,17.80
2022-11-12T13:48:40.635Z,17.80
2022-11-12T14:06:48.087Z,17.80
2022-11-12T14:12:26.954Z,17.80
2022-11-12T14:18:33.543Z,17.90
2022-11-12T14:24:14.258Z,17.90
2022-11-12T14:36:05.538Z,17.80
2022-11-12T14:42:09.058Z,17.80
2022-11-12T14:53:41.378Z,17.70
2022-11-12T14:59:13.258Z,17.60
2022-11-12T15:04:43.345Z,17.60
2022-11-12T15:10:35.556Z,17.40
2022-11-12T15:17:05.745Z,17.40
2022-11-12T15:22:38.477Z,17.30
2022-11-12T15:28:33.217Z,17.30
2022-11-12T15:34:44.191Z,17.20
2022-11-12T15:40:19.387Z,17.20
2022-11-12T15:46:16.224Z,17.20
2022-11-12T16:04:48.486Z,16.80
2022-11-12T16:10:23.633Z,16.70
2022-11-12T16:15:53.447Z,16.50
2022-11-12T16:21:20.775Z,16.40
2022-11-12T16:38:56.334Z,16.00
2022-11-12T16:50:05.774Z,15.80
2022-11-12T16:55:59.658Z,15.80
2022-11-12T17:01:30.335Z,15.80
2022-11-12T17:07:00.001Z,15.60
2022-11-12T17:12:21.105Z,15.60
2022-11-12T17:17:45.083Z,15.50
2022-11-12T17:23:08.930Z,15.40
2022-11-12T17:28:35.408Z,15.30
2022-11-12T17:33:56.770Z,15.20
2022-11-12T17:39:21.447Z,15.20
2022-11-12T17:44:50.492Z,15.10
2022-11-12T17:50:20.421Z,15.00
2022-11-12T17:55:43.870Z,14.90
2022-11-12T18:14:55.179Z,14.90
2022-11-12T18:20:38.938Z,14.80
2022-11-12T18:26:38.170Z,14.80
2022-11-12T18:38:40.634Z,14.70
2022-11-12T18:44:33.405Z,14.70
2022-11-12T18:50:19.483Z,14.60
2022-11-12T18:55:49.871Z,14.60
2022-11-12T19:01:45.955Z,14.60
2022-11-12T19:13:10.612Z,14.60
2022-11-12T19:18:59.333Z,14.40
2022-11-12T19:24:25.872Z,14.40
2022-11-12T19:29:52.260Z,14.30
2022-11-12T19:35:19.554Z,14.30
2022-11-12T19:46:23.673Z,14.00
2022-11-12T19:51:49.140Z,14.00
2022-11-12T19:57:13.575Z,14.10
2022-11-12T20:02:36.783Z,14.00
2022-11-12T20:08:22.370Z,14.20
2022-11-12T20:13:48.007Z,14.20
2022-11-12T20:19:32.324Z,14.20
2022-11-12T20:25:27.656Z,14.10
2022-11-12T20:36:43.178Z,14.00
2022-11-12T20:48:15.557Z,14.10
2022-11-12T20:54:25.750Z,14.00
2022-11-12T20:59:58.353Z,13.90
2022-11-12T21:11:25.970Z,13.70
2022-11-12T21:16:49.887Z,13.80
2022-11-12T21:22:40.478Z,13.80
2022-11-12T21:28:28.836Z,13.80
2022-11-12T21:34:20.271Z,13.70
2022-11-12T21:39:50.330Z,13.80
2022-11-12T21:45:18.739Z,13.80
2022-11-12T21:51:12.322Z,13.80
2022-11-12T21:56:45.214Z,13.80
2022-11-12T22:02:22.559Z,13.80
2022-11-12T22:07:54.218Z,13.80
2022-11-12T22:13:27.837Z,13.60
2022-11-12T22:19:09.041Z,13.50
2022-11-12T22:24:52.143Z,13.50
2022-11-12T22:30:22.422Z,13.60
2022-11-12T22:35:45.035Z,13.50
2022-11-12T22:41:31.455Z,13.50
2022-11-12T22:46:56.798Z,13.40
2022-11-12T22:52:50.022Z,13.30
2022-11-12T22:58:57.188Z,13.30
2022-11-12T23:04:25.036Z,13.30
2022-11-12T23:15:33.121Z,13.50
2022-11-12T23:21:18.684Z,13.60
2022-11-12T23:26:47.980Z,13.60
2022-11-12T23:32:13.262Z,13.50
2022-11-12T23:37:54.273Z,13.40
2022-11-12T23:43:18.681Z,13.40
2022-11-12T23:55:08.062Z,13.50
